Time;durP1;ratioP1;P1;durP2;ratioP2;P2;SDS_P1;SDS_P2;PMS_P1;PMS_P2;Temp;Humidity;BMP_temperature;BMP_pressure;BME280_temperature;BME280_humidity;BME280_pressure;Samples;Min_cycle;Max_cycle;Signal;HPM_P1;HPM_P2
2022/03/27 00:01:34;;;;;;;10.70;7.38;;;;;;;9.45;86.03;103073.06;5037522;28;20479;-59
2022/03/27 00:04:00;;;;;;;11.25;7.15;;;;;;;9.33;86.66;103063.19;5037894;28;20041;-60
2022/03/27 00:06:25;;;;;;;11.68;6.95;;;;;;;9.43;86.73;103082.59;5037569;28;20372;-59
2022/03/27 00:08:50;;;;;;;11.75;7.30;;;;;;;9.35;86.69;103079.75;5037606;28;20340;-59
2022/03/27 00:11:24;;;;;;;10.48;6.90;;;;;;;9.45;87.11;103090.47;5037362;28;20029;-59
2022/03/27 00:13:51;;;;;;;10.70;7.20;;;;;;;9.45;87.57;103087.88;5037288;28;20116;-60
2022/03/27 00:16:16;;;;;;;10.85;6.40;;;;;;;9.40;87.32;103082.50;5037821;28;20374;-59
2022/03/27 00:18:42;;;;;;;10.77;6.70;;;;;;;9.33;87.67;103080.59;5037397;28;20065;-59
2022/03/27 00:21:08;;;;;;;12.55;7.22;;;;;;;9.32;87.99;103086.66;5037305;28;20381;-59
2022/03/27 00:23:34;;;;;;;13.80;6.93;;;;;;;9.28;88.20;103082.19;5036962;28;20072;-59
2022/03/27 00:25:59;;;;;;;11.07;7.15;;;;;;;9.28;88.51;103087.41;5036927;28;20029;-59
2022/03/27 00:28:31;;;;;;;10.10;6.85;;;;;;;9.22;88.35;103076.78;5036854;28;20044;-60
2022/03/27 00:30:57;;;;;;;11.85;6.47;;;;;;;9.26;88.51;103082.13;5037131;28;20429;-59
2022/03/27 00:33:22;;;;;;;10.65;6.63;;;;;;;9.29;88.18;103083.97;5037201;28;20056;-59
2022/03/27 00:35:47;;;;;;;11.57;6.80;;;;;;;9.30;88.33;103081.38;5037353;28;20029;-59
2022/03/27 00:38:13;;;;;;;11.88;7.00;;;;;;;9.17;88.70;103073.19;5036568;28;20040;-59
2022/03/27 00:40:38;;;;;;;11.18;6.35;;;;;;;9.10;89.02;103068.59;5036861;28;20433;-59
2022/03/27 00:43:04;;;;;;;12.18;7.15;;;;;;;9.07;89.45;103085.06;5036497;28;20021;-60
2022/03/27 00:45:30;;;;;;;12.98;6.57;;;;;;;9.01;89.65;103083.16;5036713;28;20029;-59
2022/03/27 00:47:55;;;;;;;12.68;7.10;;;;;;;9.01;90.12;103083.16;5036823;28;20136;-59
2022/03/27 00:50:21;;;;;;;11.95;7.13;;;;;;;8.96;90.21;103079.56;5036776;28;20037;-59
2022/03/27 00:52:46;;;;;;;10.75;7.40;;;;;;;8.93;90.44;103078.56;5036632;28;20116;-60
2022/03/27 00:55:12;;;;;;;11.02;6.95;;;;;;;8.91;90.52;103072.41;5036686;28;20037;-59
2022/03/27 00:57:37;;;;;;;11.55;6.80;;;;;;;8.93;90.74;103078.56;5036163;28;20464;-59
2022/03/27 01:00:09;;;;;;;11.75;6.85;;;;;;;8.92;90.72;103074.19;5036294;28;20029;-59
2022/03/27 01:02:35;;;;;;;11.80;6.53;;;;;;;8.95;90.62;103074.28;5035687;28;20033;-60
2022/03/27 01:05:08;;;;;;;11.52;6.78;;;;;;;8.95;90.81;103072.56;5036674;28;20411;-59
2022/03/27 01:07:33;;;;;;;10.27;6.90;;;;;;;8.84;91.00;103070.44;5035256;28;20426;-59
2022/03/27 01:09:59;;;;;;;12.60;7.50;;;;;;;8.82;91.46;103069.56;5036369;28;20037;-59
2022/03/27 01:12:31;;;;;;;10.23;7.18;;;;;;;8.72;92.11;103070.97;5035808;28;20060;-59
2022/03/27 01:14:59;;;;;;;11.35;7.55;;;;;;;8.62;92.48;103068.94;5035954;28;20041;-60
2022/03/27 01:17:26;;;;;;;9.80;7.20;;;;;;;8.64;92.78;103062.06;5035972;28;20033;-59
2022/03/27 01:19:54;;;;;;;11.05;7.10;;;;;;;8.62;92.38;103068.94;5035977;28;20087;-60
2022/03/27 01:22:20;;;;;;;10.98;7.40;;;;;;;8.60;92.52;103066.28;5036212;28;20120;-59
2022/03/27 01:24:47;;;;;;;11.40;7.78;;;;;;;8.51;92.47;103062.50;5035851;28;20456;-60
2022/03/27 01:27:12;;;;;;;13.57;7.57;;;;;;;8.45;92.79;103058.00;5036194;28;20072;-60
2022/03/27 01:29:38;;;;;;;13.48;7.28;;;;;;;8.47;93.05;103063.28;5035983;28;20064;-59
2022/03/27 01:32:05;;;;;;;10.88;7.03;;;;;;;8.53;93.04;103066.03;5035878;28;20041;-59
2022/03/27 01:34:31;;;;;;;13.07;7.53;;;;;;;8.48;93.19;103065.03;5035794;28;20416;-59
2022/03/27 01:37:02;;;;;;;13.15;7.05;;;;;;;8.53;93.00;103064.31;5035726;28;20061;-60
2022/03/27 01:39:27;;;;;;;11.02;7.13;;;;;;;8.54;92.75;103065.22;5035706;28;20041;-60
2022/03/27 01:41:52;;;;;;;10.10;7.05;;;;;;;8.51;92.65;103058.16;5036322;28;20041;-59
2022/03/27 01:44:18;;;;;;;11.00;7.53;;;;;;;8.51;92.92;103059.88;5035824;28;20129;-59
2022/03/27 01:46:44;;;;;;;10.25;7.18;;;;;;;8.52;93.00;103065.16;5035457;28;20445;-60
2022/03/27 01:49:12;;;;;;;12.43;8.13;;;;;;;8.42;93.27;103064.84;5035598;28;20041;-60
2022/03/27 01:51:38;;;;;;;11.60;7.65;;;;;;;8.30;93.75;103060.09;5035705;28;20410;-59
2022/03/27 01:54:04;;;;;;;10.40;7.68;;;;;;;8.31;94.01;103061.88;5034485;28;20064;-60
2022/03/27 01:56:30;;;;;;;13.60;8.52;;;;;;;8.27;94.59;103062.63;5035435;28;20384;-59
2022/03/27 01:58:55;;;;;;;13.63;8.23;;;;;;;8.24;94.43;103072.94;5035365;28;20037;-59
2022/03/27 02:01:21;;;;;;;14.63;8.15;;;;;;;8.22;94.65;103072.00;5035422;28;20083;-59
2022/03/27 02:03:46;;;;;;;13.05;8.75;;;;;;;8.29;94.53;103072.25;5035265;28;20448;-59
2022/03/27 02:06:12;;;;;;;14.82;9.40;;;;;;;8.22;94.58;103062.47;5035161;28;20034;-59
2022/03/27 02:08:38;;;;;;;12.70;8.60;;;;;;;8.24;94.66;103070.34;5033930;28;20038;-59
2022/03/27 02:11:05;;;;;;;14.07;8.30;;;;;;;8.13;94.89;103064.78;5035457;28;20425;-59
2022/03/27 02:13:30;;;;;;;15.50;9.45;;;;;;;8.14;95.03;103068.28;5035142;28;20034;-59
2022/03/27 02:15:57;;;;;;;12.15;9.13;;;;;;;8.10;95.29;103071.63;5035463;28;20041;-59
2022/03/27 02:18:26;;;;;;;13.63;9.00;;;;;;;8.09;95.60;103060.31;5035123;28;20033;-59
2022/03/27 02:20:51;;;;;;;14.55;9.65;;;;;;;8.10;95.79;103075.13;5035227;28;20041;-59
2022/03/27 02:23:16;;;;;;;13.63;9.25;;;;;;;7.96;95.40;103046.00;5034770;28;20158;-60
2022/03/27 02:25:42;;;;;;;14.60;9.38;;;;;;;8.06;95.30;103059.31;5035315;28;20434;-59
2022/03/27 02:28:07;;;;;;;15.27;9.98;;;;;;;7.98;95.92;103065.16;5035036;28;20040;-59
2022/03/27 02:30:34;;;;;;;13.10;9.85;;;;;;;7.95;96.23;103069.41;5034886;28;20444;-59
2022/03/27 02:32:59;;;;;;;14.85;9.82;;;;;;;7.91;96.65;103064.91;5034762;28;20127;-59
2022/03/27 02:35:25;;;;;;;12.73;9.52;;;;;;;7.87;96.91;103068.25;5034761;28;20453;-59
2022/03/27 02:37:50;;;;;;;13.40;9.75;;;;;;;7.81;97.14;103066.31;5034608;28;20025;-60
2022/03/27 02:40:15;;;;;;;15.50;10.65;;;;;;;7.88;97.55;103065.69;5034862;28;20033;-59
2022/03/27 02:42:41;;;;;;;17.70;11.93;;;;;;;7.87;97.56;103070.84;5035268;28;20038;-59
2022/03/27 02:45:07;;;;;;;18.88;12.23;;;;;;;7.83;98.09;103069.84;5034935;28;20029;-59
2022/03/27 02:47:33;;;;;;;18.77;12.65;;;;;;;7.87;98.24;103070.84;5034477;28;20033;-59
2022/03/27 02:49:59;;;;;;;20.88;12.13;;;;;;;7.95;98.27;103059.84;5034473;28;20036;-59
2022/03/27 02:52:24;;;;;;;19.08;13.18;;;;;;;7.95;98.20;103062.47;5033903;28;20049;-60
2022/03/27 02:54:50;;;;;;;20.42;13.82;;;;;;;7.92;98.51;103058.88;5034685;28;20029;-59
2022/03/27 02:57:15;;;;;;;24.58;14.30;;;;;;;8.00;98.83;103063.47;5034373;28;20094;-59
2022/03/27 02:59:40;;;;;;;25.85;15.88;;;;;;;7.95;98.76;103054.66;5034594;28;20033;-59
2022/03/27 03:02:06;;;;;;;26.52;16.50;;;;;;;8.01;99.05;103053.94;5033616;28;20034;-59
2022/03/27 03:04:34;;;;;;;29.30;16.90;;;;;;;7.91;99.99;103063.19;5034543;28;20021;-59
2022/03/27 03:07:00;;;;;;;25.85;17.70;;;;;;;7.94;100.00;103058.09;5034305;28;20112;-60
2022/03/27 03:09:25;;;;;;;27.02;17.77;;;;;;;7.96;100.00;103059.03;5034419;28;20515;-59
2022/03/27 03:11:50;;;;;;;26.17;16.92;;;;;;;7.87;100.00;103058.72;5034320;28;20025;-59
2022/03/27 03:14:16;;;;;;;27.98;18.25;;;;;;;7.91;100.00;103046.66;5034180;28;20036;-59
2022/03/27 03:16:41;;;;;;;27.98;17.75;;;;;;;7.89;100.00;103057.03;5033986;28;20045;-59
2022/03/27 03:19:07;;;;;;;28.17;18.35;;;;;;;7.92;100.00;103046.72;5034313;28;20037;-59
2022/03/27 03:21:32;;;;;;;27.48;18.48;;;;;;;7.97;100.00;103052.06;5034482;28;20053;-59
2022/03/27 03:23:57;;;;;;;27.85;17.80;;;;;;;7.99;100.00;103047.78;5033937;28;20447;-60
2022/03/27 03:26:23;;;;;;;26.17;17.80;;;;;;;8.09;100.00;103046.38;5038341;28;20121;-60
2022/03/27 03:28:48;;;;;;;29.25;18.55;;;;;;;8.03;100.00;103036.63;5038652;28;20029;-60
2022/03/27 03:31:14;;;;;;;28.63;18.70;;;;;;;7.95;100.00;103039.00;5038403;28;20043;-60
2022/03/27 03:33:40;;;;;;;26.42;17.90;;;;;;;8.00;100.00;103046.94;5038080;28;20060;-60
2022/03/27 03:36:06;;;;;;;26.60;17.65;;;;;;;7.96;100.00;103046.00;5037888;28;20356;-60
2022/03/27 03:38:31;;;;;;;26.65;17.13;;;;;;;7.99;100.00;103042.56;5038050;28;20025;-60
2022/03/27 03:40:56;;;;;;;26.10;17.20;;;;;;;8.04;100.00;103046.22;5037880;28;20105;-60
2022/03/27 03:43:22;;;;;;;28.42;17.90;;;;;;;8.03;100.00;103041.84;5037975;28;20068;-60
2022/03/27 03:45:47;;;;;;;25.63;18.55;;;;;;;8.08;100.00;103035.06;5037801;28;20025;-60
2022/03/27 03:48:13;;;;;;;28.20;18.65;;;;;;;8.02;100.00;103035.75;5037835;28;20033;-58
2022/03/27 03:50:38;;;;;;;29.00;18.92;;;;;;;8.01;100.00;103038.28;5037769;28;20040;-60
2022/03/27 03:53:04;;;;;;;29.05;19.02;;;;;;;7.96;100.00;103043.38;5037470;28;20044;-60
2022/03/27 03:55:30;;;;;;;27.20;18.92;;;;;;;8.01;100.00;103049.59;5038233;28;20087;-60
2022/03/27 03:57:58;;;;;;;25.33;18.38;;;;;;;8.00;100.00;103034.81;5038116;28;20034;-60
2022/03/27 04:00:25;;;;;;;27.58;18.80;;;;;;;8.00;100.00;103044.34;5037853;28;20036;-58
2022/03/27 04:02:51;;;;;;;23.95;17.88;;;;;;;8.05;100.00;103050.59;5037878;28;20112;-58
2022/03/27 04:05:16;;;;;;;26.90;17.17;;;;;;;8.13;100.00;103043.03;5038100;28;20040;-59
2022/03/27 04:07:43;;;;;;;28.92;17.83;;;;;;;8.13;100.00;103049.13;5037151;28;20029;-60
2022/03/27 04:10:09;;;;;;;26.35;16.70;;;;;;;8.05;100.00;103045.38;5037932;28;20025;-60
2022/03/27 04:12:34;;;;;;;26.65;17.95;;;;;;;8.00;100.00;103053.06;5037710;28;20364;-60
2022/03/27 04:14:59;;;;;;;24.02;16.55;;;;;;;7.97;100.00;103031.19;5037512;28;20099;-60
2022/03/27 04:17:25;;;;;;;25.10;17.38;;;;;;;8.00;100.00;103057.38;5037664;28;20051;-60
2022/03/27 04:19:50;;;;;;;25.83;17.55;;;;;;;8.03;100.00;103049.66;5037278;28;20124;-61
2022/03/27 04:22:15;;;;;;;28.65;18.25;;;;;;;7.98;100.00;103051.22;5037021;28;20037;-60
2022/03/27 04:24:41;;;;;;;28.60;18.92;;;;;;;7.97;100.00;103052.94;5037827;28;20030;-60
2022/03/27 04:27:06;;;;;;;25.80;18.27;;;;;;;8.02;100.00;103046.16;5037188;28;20059;-60
2022/03/27 04:29:32;;;;;;;29.05;18.67;;;;;;;8.01;100.00;103048.72;5037631;28;20025;-60
2022/03/27 04:31:57;;;;;;;27.88;19.92;;;;;;;7.96;100.00;103039.88;5037082;28;20038;-60
2022/03/27 04:34:22;;;;;;;27.88;19.25;;;;;;;7.92;100.00;103041.50;5036834;28;20052;-60
2022/03/27 04:36:47;;;;;;;26.17;18.63;;;;;;;7.95;100.00;103044.22;5036792;28;20026;-58
2022/03/27 04:39:13;;;;;;;28.10;18.58;;;;;;;7.91;100.00;103042.34;5037068;28;20056;-58
2022/03/27 04:41:38;;;;;;;26.60;18.73;;;;;;;7.86;100.00;103043.91;5037190;28;20116;-58
2022/03/27 04:44:04;;;;;;;27.55;19.45;;;;;;;7.88;100.00;103044.84;5036971;28;20116;-58
2022/03/27 04:46:29;;;;;;;30.30;19.85;;;;;;;7.89;100.00;103044.00;5036531;28;20037;-58
2022/03/27 04:48:55;;;;;;;29.35;19.42;;;;;;;7.93;100.00;103045.88;5036835;28;20136;-58
2022/03/27 04:51:21;;;;;;;28.50;19.60;;;;;;;8.01;100.00;103044.41;5036383;28;20029;-58
2022/03/27 04:53:47;;;;;;;27.30;19.10;;;;;;;7.96;100.00;103043.38;5037107;28;20033;-58
2022/03/27 04:56:12;;;;;;;31.42;20.92;;;;;;;7.99;100.00;103048.66;5037034;28;20080;-58
2022/03/27 04:58:38;;;;;;;29.35;19.77;;;;;;;7.98;100.00;103044.28;5036775;28;20076;-58
2022/03/27 05:01:03;;;;;;;30.73;20.25;;;;;;;8.07;100.00;103055.88;5036333;28;20433;-58
2022/03/27 05:03:29;;;;;;;31.70;20.60;;;;;;;8.08;100.00;103050.72;5036389;28;20030;-58
2022/03/27 05:05:54;;;;;;;30.75;21.02;;;;;;;8.12;100.00;103043.88;5036067;28;20414;-58
2022/03/27 05:08:20;;;;;;;29.77;20.55;;;;;;;8.23;100.00;103059.00;5036223;28;20037;-58
2022/03/27 05:10:46;;;;;;;36.75;20.60;;;;;;;8.17;100.00;103056.19;5036623;28;20029;-58
2022/03/27 05:13:14;;;;;;;33.90;21.45;;;;;;;8.14;100.00;103069.13;5036820;28;20025;-59
2022/03/27 05:15:39;;;;;;;32.72;20.95;;;;;;;8.04;100.00;103060.16;5036685;28;20407;-59
2022/03/27 05:18:05;;;;;;;41.17;22.00;;;;;;;8.03;100.00;103065.31;5036523;28;20037;-58
2022/03/27 05:20:30;;;;;;;40.35;21.70;;;;;;;7.95;100.00;103059.84;5035160;28;20053;-59
2022/03/27 05:22:57;;;;;;;33.42;23.30;;;;;;;7.88;100.00;103065.69;5036136;28;20136;-58
2022/03/27 05:25:23;;;;;;;37.65;25.05;;;;;;;7.83;100.00;103069.84;5036419;28;20041;-58
2022/03/27 05:27:51;;;;;;;37.92;25.20;;;;;;;7.84;100.00;103076.84;5036007;28;20042;-58
2022/03/27 05:30:19;;;;;;;38.97;25.98;;;;;;;7.87;100.00;103071.75;5036148;28;20041;-58
2022/03/27 05:32:45;;;;;;;40.28;24.40;;;;;;;7.93;100.00;103071.97;5036071;28;20029;-58
2022/03/27 05:35:10;;;;;;;37.35;23.67;;;;;;;8.02;100.00;103074.84;5035624;28;20030;-58
2022/03/27 05:37:40;;;;;;;37.33;23.48;;;;;;;8.04;100.00;103080.13;5036428;28;20112;-58
2022/03/27 05:40:07;;;;;;;34.05;21.85;;;;;;;8.06;100.00;103072.34;5036055;28;20079;-58
2022/03/27 05:42:33;;;;;;;36.75;22.70;;;;;;;8.03;100.00;103071.41;5035709;28;20036;-58
2022/03/27 05:44:59;;;;;;;34.33;22.67;;;;;;;8.08;100.00;103074.19;5035637;28;20061;-58
2022/03/27 05:47:25;;;;;;;34.95;21.75;;;;;;;8.07;100.00;103074.13;5034786;28;20044;-58
2022/03/27 05:49:50;;;;;;;33.88;21.92;;;;;;;8.03;100.00;103073.13;5035609;28;20037;-58
2022/03/27 05:52:16;;;;;;;34.67;21.48;;;;;;;8.07;100.00;103075.00;5036240;28;20041;-59
2022/03/27 05:54:42;;;;;;;34.50;21.67;;;;;;;7.97;100.00;103075.53;5035704;28;20029;-58
2022/03/27 05:57:08;;;;;;;32.05;21.17;;;;;;;8.00;100.00;103073.91;5035369;28;20433;-58
2022/03/27 05:59:33;;;;;;;31.92;20.85;;;;;;;8.00;100.00;103078.25;5035537;28;20030;-59
2022/03/27 06:01:58;;;;;;;30.00;19.83;;;;;;;7.97;100.00;103084.22;5035592;28;20037;-58
2022/03/27 06:04:24;;;;;;;32.88;20.83;;;;;;;7.89;100.00;103083.09;5035239;28;20484;-59
2022/03/27 06:06:49;;;;;;;30.83;20.05;;;;;;;7.87;100.00;103097.81;5035372;28;20045;-58
2022/03/27 06:09:14;;;;;;;30.73;19.90;;;;;;;7.90;100.00;103100.53;5035789;28;20029;-58
2022/03/27 06:11:39;;;;;;;34.20;21.00;;;;;;;7.83;100.00;103093.31;5035520;28;20108;-58
2022/03/27 06:14:05;;;;;;;32.53;20.67;;;;;;;7.86;100.00;103098.63;5035338;28;20038;-58
2022/03/27 06:16:30;;;;;;;31.13;18.67;;;;;;;7.87;100.00;103102.13;5035211;28;20035;-58
2022/03/27 06:18:56;;;;;;;34.78;18.58;;;;;;;7.78;100.00;103102.72;5035165;28;20041;-59
2022/03/27 06:21:21;;;;;;;30.27;18.67;;;;;;;7.75;100.00;103106.94;5034895;28;20050;-58
2022/03/27 06:23:46;;;;;;;32.40;18.33;;;;;;;7.79;100.00;103106.22;5034939;28;20040;-58
2022/03/27 06:26:11;;;;;;;37.45;18.13;;;;;;;7.64;100.00;103085.69;5034905;28;20401;-58
2022/03/27 06:28:37;;;;;;;32.13;18.40;;;;;;;7.60;100.00;103102.09;5035160;28;20025;-58
2022/03/27 06:31:02;;;;;;;37.97;19.67;;;;;;;7.65;100.00;103103.09;5034801;28;20372;-58
2022/03/27 06:33:27;;;;;;;35.72;19.88;;;;;;;7.59;100.00;103100.31;5034673;28;20037;-59
2022/03/27 06:35:53;;;;;;;37.47;20.17;;;;;;;7.55;100.00;103103.63;5034470;28;20029;-58
2022/03/27 06:38:18;;;;;;;38.47;20.75;;;;;;;7.49;100.00;103109.50;5034780;28;20033;-58
2022/03/27 06:40:43;;;;;;;39.97;20.25;;;;;;;7.46;100.00;103108.50;5034704;28;20041;-58
2022/03/27 06:43:09;;;;;;;52.30;21.05;;;;;;;7.43;100.00;103108.41;5034569;28;20033;-58
2022/03/27 06:45:35;;;;;;;38.53;20.95;;;;;;;7.41;100.00;103112.69;5034700;28;20029;-58
2022/03/27 06:48:00;;;;;;;39.83;21.33;;;;;;;7.46;100.00;103106.78;5034403;28;20029;-58
2022/03/27 06:50:25;;;;;;;54.40;22.85;;;;;;;7.51;100.00;103107.84;5033500;28;20128;-58
2022/03/27 06:52:54;;;;;;;40.42;21.33;;;;;;;7.55;100.00;103114.06;5034876;28;20104;-58
2022/03/27 06:55:20;;;;;;;40.88;21.38;;;;;;;7.50;100.00;103108.69;5034854;28;20116;-58
2022/03/27 06:57:46;;;;;;;45.47;21.63;;;;;;;7.49;100.00;103108.63;5034574;28;20045;-58
2022/03/27 07:03:09;;;;;;;54.65;22.27;;;;;;;7.52;100.00;103107.00;5034598;28;20166;-59
2022/03/27 07:05:39;;;;;;;49.60;21.75;;;;;;;7.55;100.00;103116.66;5035016;28;20381;-58
2022/03/27 07:08:07;;;;;;;51.40;22.58;;;;;;;7.45;100.00;103106.72;5034313;28;20091;-58
2022/03/27 07:10:32;;;;;;;49.60;22.73;;;;;;;7.48;100.00;103112.94;5034363;28;20452;-58
2022/03/27 07:12:58;;;;;;;47.90;22.52;;;;;;;7.50;100.00;103121.69;5034089;28;20091;-58
2022/03/27 07:15:24;;;;;;;59.67;22.63;;;;;;;7.54;100.00;103114.88;5034018;28;20116;-58
2022/03/27 07:17:50;;;;;;;48.38;23.30;;;;;;;7.53;100.00;103115.72;5035128;28;20044;-58
2022/03/27 07:20:24;;;;;;;47.03;22.90;;;;;;;7.53;100.00;103115.72;5034655;28;20483;-59
2022/03/27 07:22:50;;;;;;;52.05;24.75;;;;;;;7.60;100.00;103108.19;5034255;28;20033;-60
2022/03/27 07:25:16;;;;;;;57.08;25.40;;;;;;;7.56;100.00;103108.00;5034172;28;20037;-59
2022/03/27 07:27:41;;;;;;;61.92;25.50;;;;;;;7.57;100.00;103113.28;5034042;28;20030;-60
2022/03/27 07:30:08;;;;;;;57.85;26.42;;;;;;;7.59;100.00;103110.72;5033942;28;20037;-60
2022/03/27 07:32:33;;;;;;;52.85;25.45;;;;;;;7.64;100.00;103111.75;5034878;28;20413;-60
2022/03/27 07:34:58;;;;;;;56.15;27.50;;;;;;;7.64;100.00;103115.25;5034675;28;20097;-60
2022/03/27 07:37:24;;;;;;;57.67;27.73;;;;;;;7.81;100.00;103120.16;5033733;28;20033;-60
2022/03/27 07:39:49;;;;;;;52.13;25.25;;;;;;;7.90;100.00;103118.78;5034231;28;20052;-60
2022/03/27 07:42:15;;;;;;;52.35;25.40;;;;;;;7.88;100.00;103114.34;5034062;28;20045;-60
2022/03/27 07:44:40;;;;;;;52.83;24.58;;;;;;;7.92;100.00;103111.00;5033682;28;20065;-60
2022/03/27 07:47:06;;;;;;;47.85;23.52;;;;;;;7.99;100.00;103124.28;5034526;28;20448;-60
2022/03/27 07:49:31;;;;;;;43.60;21.40;;;;;;;8.04;100.00;103114.00;5033870;28;20037;-60
2022/03/27 07:51:56;;;;;;;45.05;22.55;;;;;;;8.06;100.00;103119.28;5034807;28;20033;-59
2022/03/27 07:54:22;;;;;;;40.10;20.20;;;;;;;8.06;100.00;103116.69;5034195;28;20035;-60
2022/03/27 07:56:47;;;;;;;41.40;20.90;;;;;;;8.06;100.00;103120.16;5033827;28;20030;-59
2022/03/27 07:59:13;;;;;;;43.50;21.80;;;;;;;8.15;100.00;103111.75;5033607;28;20389;-60
2022/03/27 08:01:38;;;;;;;39.25;21.15;;;;;;;8.27;100.00;103118.28;5034085;28;20053;-60
2022/03/27 08:04:05;;;;;;;42.88;21.63;;;;;;;8.30;99.40;103118.38;5034213;28;20125;-60
2022/03/27 08:06:36;;;;;;;39.72;21.42;;;;;;;8.29;99.44;103106.16;5033876;28;20029;-60
2022/03/27 08:09:02;;;;;;;38.95;21.27;;;;;;;8.39;98.97;103112.59;5033957;28;20025;-60
2022/03/27 08:11:27;;;;;;;40.97;21.95;;;;;;;8.47;98.98;103105.03;5035791;28;20116;-60
2022/03/27 08:13:52;;;;;;;39.80;21.92;;;;;;;8.58;98.46;103106.22;5036999;28;20076;-60
2022/03/27 08:16:18;;;;;;;41.22;22.05;;;;;;;8.61;98.12;103112.44;5037810;28;20045;-60
2022/03/27 08:18:43;;;;;;;40.42;21.40;;;;;;;8.61;97.62;103102.00;5037394;28;20098;-60
2022/03/27 08:21:08;;;;;;;41.05;22.08;;;;;;;8.67;96.88;103102.16;5037365;28;20041;-60
2022/03/27 08:23:33;;;;;;;36.97;20.60;;;;;;;8.65;96.69;103103.88;5037316;28;20364;-60
2022/03/27 08:28:44;;;;;;;42.78;26.08;;;;;;;8.60;96.49;103100.22;5037365;28;20041;-60
2022/03/27 08:31:09;;;;;;;38.42;22.48;;;;;;;8.42;97.19;103091.81;5037030;28;20037;-60
2022/03/27 08:33:34;;;;;;;40.65;22.98;;;;;;;8.45;97.52;103117.13;5037423;28;20029;-60
2022/03/27 08:36:00;;;;;;;42.10;23.58;;;;;;;8.50;97.85;103115.53;5037166;28;20033;-60
2022/03/27 08:38:25;;;;;;;34.58;20.30;;;;;;;8.61;96.71;103112.44;5037556;28;20037;-59
2022/03/27 08:40:54;;;;;;;36.17;21.52;;;;;;;8.61;96.17;103108.94;5037044;28;20094;-60
2022/03/27 08:43:19;;;;;;;42.95;24.20;;;;;;;8.46;96.81;103114.56;5037346;28;20045;-60
2022/03/27 08:45:45;;;;;;;39.35;24.65;;;;;;;8.47;96.78;103102.41;5037530;28;20460;-60
2022/03/27 08:48:11;;;;;;;38.72;22.20;;;;;;;8.56;97.32;103116.63;5037064;28;20167;-60
2022/03/27 08:50:44;;;;;;;37.53;21.17;;;;;;;8.61;96.03;103111.53;5036886;28;20036;-60
2022/03/27 08:53:12;;;;;;;41.95;21.40;;;;;;;8.68;96.04;103109.16;5036846;28;20025;-60
2022/03/27 08:55:47;;;;;;;36.83;21.30;;;;;;;8.75;95.64;103109.34;5036663;28;20384;-60
2022/03/27 08:58:12;;;;;;;37.47;20.75;;;;;;;8.67;95.04;103119.53;5037127;28;20080;-59
2022/03/27 09:00:39;;;;;;;34.70;19.92;;;;;;;8.69;95.29;103112.66;5036895;28;20083;-60
2022/03/27 09:03:06;;;;;;;32.60;19.65;;;;;;;8.58;95.27;103114.06;5036694;28;20112;-60
2022/03/27 09:05:36;;;;;;;39.55;21.70;;;;;;;8.62;94.54;103126.38;5036939;28;20037;-60
2022/03/27 09:08:04;;;;;;;35.70;20.65;;;;;;;8.57;95.44;103122.72;5036281;28;20029;-60
2022/03/27 09:10:30;;;;;;;36.78;21.90;;;;;;;8.48;94.93;103131.16;5036404;28;20433;-59
2022/03/27 09:12:56;;;;;;;39.17;21.05;;;;;;;8.31;95.42;103137.53;5036575;28;20033;-60
2022/03/27 09:15:23;;;;;;;38.10;21.55;;;;;;;8.09;96.76;103137.66;5036493;28;20025;-60
2022/03/27 09:18:14;;;;;;;36.95;20.83;;;;;;;8.16;96.55;103137.00;5036825;28;20119;-60
2022/03/27 09:20:43;;;;;;;36.30;20.88;;;;;;;8.08;96.58;103121.13;5036056;28;20114;-60
2022/03/27 09:23:28;;;;;;;37.67;21.48;;;;;;;8.27;96.86;103146.97;5035589;28;20040;-60
2022/03/27 09:25:57;;;;;;;37.15;21.40;;;;;;;8.28;96.44;103145.25;5036215;28;20026;-60
2022/03/27 09:28:34;;;;;;;33.30;19.58;;;;;;;8.31;96.25;103137.53;5036337;28;20037;-59
2022/03/27 09:31:02;;;;;;;34.35;19.08;;;;;;;8.32;96.19;103141.91;5035272;28;20114;-60
2022/03/27 09:33:37;;;;;;;33.53;19.70;;;;;;;8.27;96.24;103140.88;5036374;28;20148;-60
2022/03/27 09:36:11;;;;;;;34.58;18.67;;;;;;;8.35;96.56;103142.00;5036172;28;20449;-60
2022/03/27 09:38:37;;;;;;;33.13;18.40;;;;;;;8.37;95.86;103135.13;5035811;28;20037;-60
2022/03/27 09:41:03;;;;;;;29.27;17.70;;;;;;;8.49;95.76;103140.72;5036171;28;20055;-60
2022/03/27 09:43:28;;;;;;;33.35;18.98;;;;;;;8.44;95.80;103133.63;5035838;28;20108;-60
2022/03/27 09:45:58;;;;;;;35.45;20.00;;;;;;;8.55;95.67;103132.22;5035872;28;20036;-60
2022/03/27 09:48:24;;;;;;;35.40;19.45;;;;;;;8.62;95.41;103128.97;5035013;28;20116;-60
2022/03/27 09:50:52;;;;;;;34.53;18.55;;;;;;;8.74;94.67;103118.91;5035626;28;20029;-60
2022/03/27 09:53:28;;;;;;;31.13;18.17;;;;;;;8.89;94.57;103123.69;5035729;28;20036;-60
2022/03/27 09:55:59;;;;;;;34.35;19.33;;;;;;;8.95;94.35;103121.28;5035231;28;20044;-58
2022/03/27 09:58:33;;;;;;;34.47;19.40;;;;;;;9.15;93.72;103112.31;5035511;28;20113;-58
2022/03/27 10:01:16;;;;;;;35.50;20.38;;;;;;;9.33;92.57;103107.59;5035439;28;20037;-59
2022/03/27 10:04:07;;;;;;;30.30;18.13;;;;;;;9.37;92.36;103103.31;5035169;28;20033;-58
2022/03/27 10:06:37;;;;;;;31.08;18.02;;;;;;;9.57;91.39;103096.03;5034902;28;20030;-58
2022/03/27 10:09:05;;;;;;;33.38;19.88;;;;;;;9.64;90.00;103091.03;5034885;28;20490;-59
2022/03/27 10:11:30;;;;;;;31.58;19.05;;;;;;;9.64;90.63;103090.13;5035290;28;20037;-59
2022/03/27 10:13:56;;;;;;;33.17;20.35;;;;;;;9.66;90.32;103085.84;5035100;28;20035;-59
2022/03/27 10:16:43;;;;;;;29.10;18.25;;;;;;;9.69;90.36;103096.38;5034961;28;20033;-59
2022/03/27 10:19:36;;;;;;;28.92;17.17;;;;;;;9.67;90.25;103090.22;5035113;28;20064;-59
2022/03/27 10:22:02;;;;;;;34.47;19.33;;;;;;;9.49;90.29;103087.13;5027348;28;20057;-59
2022/03/27 10:24:32;;;;;;;32.28;20.25;;;;;;;9.63;90.63;103093.59;5035148;28;20040;-59
2022/03/27 10:27:02;;;;;;;30.50;18.23;;;;;;;9.89;89.63;103078.56;5035288;28;20066;-59
2022/03/27 10:29:29;;;;;;;29.92;18.30;;;;;;;10.14;87.78;103078.34;5034383;28;20112;-59
2022/03/27 10:31:56;;;;;;;35.47;17.80;;;;;;;10.26;87.61;103088.22;5034928;28;20060;-59
2022/03/27 10:34:23;;;;;;;25.38;17.05;;;;;;;10.26;86.43;103076.03;5034754;28;20041;-59
2022/03/27 10:37:09;;;;;;;29.27;18.17;;;;;;;10.20;87.17;103073.28;5034722;28;20029;-59
2022/03/27 10:39:52;;;;;;;29.25;16.80;;;;;;;10.33;86.95;103064.88;5034755;28;20080;-59
2022/03/27 10:42:36;;;;;;;31.08;18.52;;;;;;;10.60;87.10;103067.22;5034596;28;20391;-60
2022/03/27 10:45:19;;;;;;;33.17;20.83;;;;;;;10.79;85.69;103064.16;5035200;28;20083;-60
2022/03/27 10:48:18;;;;;;;26.75;17.10;;;;;;;11.15;84.96;103063.13;5034695;28;20029;-59
2022/03/27 10:50:45;;;;;;;30.98;20.10;;;;;;;11.46;81.67;103059.34;5034560;28;20033;-60
2022/03/27 10:53:11;;;;;;;26.02;17.13;;;;;;;11.68;81.38;103058.88;5034631;28;20457;-61
2022/03/27 10:55:42;;;;;;;27.30;16.90;;;;;;;11.91;79.42;103047.94;5034929;28;20053;-60
2022/03/27 10:58:35;;;;;;;26.25;16.80;;;;;;;12.04;80.52;103044.66;5034567;28;20092;-60
2022/03/27 11:01:27;;;;;;;28.38;18.00;;;;;;;12.19;79.26;103039.63;5034890;28;20030;-60
2022/03/27 11:04:04;;;;;;;29.33;18.23;;;;;;;12.28;77.97;103039.78;5034362;28;20033;-60
2022/03/27 11:06:31;;;;;;;28.67;18.10;;;;;;;12.36;77.48;103042.50;5034282;28;20425;-61
2022/03/27 11:08:59;;;;;;;27.60;18.35;;;;;;;12.34;77.01;103036.34;5034350;28;20107;-61
2022/03/27 11:11:43;;;;;;;30.80;17.70;;;;;;;12.45;77.81;103032.16;5034620;28;20455;-61
2022/03/27 11:14:09;;;;;;;28.77;18.02;;;;;;;12.50;76.80;103033.97;5034407;28;20120;-60
2022/03/27 11:17:15;;;;;;;27.63;18.05;;;;;;;12.75;77.61;103036.94;5034527;28;20056;-60
2022/03/27 11:19:44;;;;;;;28.88;17.55;;;;;;;12.95;75.07;103029.28;5034058;28;20053;-61
2022/03/27 11:22:53;;;;;;;23.83;16.58;;;;;;;13.14;76.29;103023.38;5034916;28;20125;-60